createdAt,value
2022-10-25T00:06:34.544Z,21.67
2022-10-25T00:14:15.082Z,21.71
2022-10-25T00:21:53.061Z,21.67
2022-10-25T00:29:39.952Z,21.69
2022-10-25T00:37:23.484Z,21.65
2022-10-25T00:45:19.019Z,21.66
2022-10-25T00:53:34.983Z,21.67
2022-10-25T01:01:29.160Z,21.69
2022-10-25T01:09:15.706Z,21.68
2022-10-25T01:17:08.285Z,21.66
2022-10-25T01:25:27.636Z,21.62
2022-10-25T01:33:34.441Z,21.65
2022-10-25T01:41:46.099Z,21.63
2022-10-25T01:50:09.104Z,21.66
2022-10-25T01:58:03.723Z,21.65
2022-10-25T02:06:31.933Z,21.64
2022-10-25T02:14:42.717Z,21.66
2022-10-25T02:22:52.015Z,21.65
2022-10-25T02:30:30.112Z,21.65
2022-10-25T02:38:24.263Z,21.63
2022-10-25T02:46:05.153Z,21.62
2022-10-25T02:53:41.072Z,21.63
2022-10-25T03:01:25.084Z,21.63
2022-10-25T03:08:58.481Z,21.61
2022-10-25T03:16:40.001Z,21.61
2022-10-25T03:24:13.223Z,21.61
2022-10-25T03:31:57.053Z,21.61
2022-10-25T03:39:38.119Z,21.61
2022-10-25T03:47:10.803Z,21.61
2022-10-25T03:54:46.763Z,21.62
2022-10-25T04:02:17.300Z,21.58
2022-10-25T04:09:53.746Z,21.58
2022-10-25T04:17:38.587Z,21.56
2022-10-25T04:25:10.624Z,21.61
2022-10-25T04:32:51.330Z,21.56
2022-10-25T04:40:33.107Z,21.56
2022-10-25T04:48:22.172Z,21.53
2022-10-25T04:55:58.610Z,21.55
2022-10-25T05:03:37.392Z,21.56
2022-10-25T05:11:14.608Z,21.53
2022-10-25T05:18:57.177Z,21.54
2022-10-25T05:26:33.195Z,21.57
2022-10-25T05:34:04.071Z,21.56
2022-10-25T05:41:44.154Z,21.55
2022-10-25T05:49:14.708Z,21.57
2022-10-25T05:56:52.009Z,21.58
2022-10-25T06:04:37.087Z,21.54
2022-10-25T06:12:08.887Z,21.57
2022-10-25T06:19:56.963Z,21.55
2022-10-25T06:27:41.136Z,21.57
2022-10-25T06:35:22.823Z,21.56
2022-10-25T06:43:06.615Z,21.6
2022-10-25T06:50:56.577Z,21.61
2022-10-25T06:58:47.642Z,21.59
2022-10-25T07:06:22.995Z,21.64
2022-10-25T07:14:08.290Z,21.64
2022-10-25T07:21:46.638Z,21.63
2022-10-25T07:29:36.044Z,21.62
2022-10-25T07:37:13.869Z,21.6
2022-10-25T07:44:37.512Z,21.59
2022-10-25T07:52:38.237Z,21.62
2022-10-25T08:00:34.757Z,21.61
2022-10-25T08:08:08.221Z,21.59
2022-10-25T08:15:59.702Z,21.59
2022-10-25T08:23:41.298Z,21.62
2022-10-25T08:31:28.159Z,21.6
2022-10-25T08:39:03.921Z,21.63
2022-10-25T08:47:16.641Z,21.61
2022-10-25T08:55:27.117Z,21.61
2022-10-25T09:03:46.772Z,21.63
2022-10-25T09:11:48.074Z,21.65
2022-10-25T09:20:01.176Z,21.68
2022-10-25T09:28:21.137Z,21.67
2022-10-25T09:36:31.932Z,21.69
2022-10-25T09:44:40.416Z,21.67
2022-10-25T09:52:45.989Z,21.69
2022-10-25T10:00:43.693Z,21.74
2022-10-25T10:08:48.515Z,21.84
2022-10-25T10:17:15.304Z,21.79
2022-10-25T10:25:10.727Z,21.8
2022-10-25T10:33:13.727Z,21.89
2022-10-25T10:40:51.579Z,21.78
2022-10-25T10:49:03.749Z,21.85
2022-10-25T10:57:00.139Z,21.87
2022-10-25T11:05:06.761Z,21.88
2022-10-25T11:20:52.142Z,22.03
2022-10-25T11:29:01.243Z,21.85
2022-10-25T11:36:49.430Z,21.84
2022-10-25T11:44:50.687Z,21.83
2022-10-25T11:53:03.048Z,21.8
2022-10-25T12:01:17.912Z,21.79
2022-10-25T12:09:32.001Z,21.81
2022-10-25T12:17:32.462Z,21.78
2022-10-25T12:25:29.752Z,21.84
2022-10-25T12:33:29.414Z,21.88
2022-10-25T12:41:43.922Z,22.02
2022-10-25T12:49:58.363Z,21.96
2022-10-25T12:57:50.485Z,22.02
2022-10-25T13:05:52.246Z,21.94
2022-10-25T13:13:40.215Z,22.02
2022-10-25T13:21:39.132Z,22
2022-10-25T13:29:42.967Z,21.99
2022-10-25T13:37:29.196Z,22.02
2022-10-25T13:45:20.343Z,22
2022-10-25T13:53:16.922Z,21.96
2022-10-25T14:01:22.005Z,22.06
2022-10-25T14:09:44.396Z,22.05
2022-10-25T14:17:57.366Z,22.09
2022-10-25T14:26:05.428Z,22.07
2022-10-25T14:33:54.231Z,21.98
2022-10-25T14:41:44.164Z,21.99
2022-10-25T14:49:19.525Z,22.04
2022-10-25T14:57:18.309Z,22.15
2022-10-25T15:05:15.455Z,22.09
2022-10-25T15:13:07.165Z,22.06
2022-10-25T15:20:59.060Z,22.01
2022-10-25T15:28:57.511Z,22.09
2022-10-25T15:36:53.406Z,22.11
2022-10-25T15:44:36.244Z,22.14
2022-10-25T15:52:33.311Z,22.07
2022-10-25T16:00:14.801Z,22.08
2022-10-25T16:07:56.472Z,22.11
2022-10-25T16:15:41.466Z,22.11
2022-10-25T16:23:21.977Z,22.2
2022-10-25T16:31:06.435Z,22.16
2022-10-25T16:38:29.751Z,22.11
2022-10-25T16:46:23.414Z,21.97
2022-10-25T16:53:50.130Z,21.86
2022-10-25T17:01:18.586Z,21.83
2022-10-25T17:09:07.054Z,21.82
2022-10-25T17:16:38.928Z,21.84
2022-10-25T17:24:19.966Z,21.75
2022-10-25T17:32:07.107Z,21.8
2022-10-25T17:39:36.316Z,21.77
2022-10-25T17:47:07.913Z,21.79
2022-10-25T17:54:45.478Z,21.77
2022-10-25T18:02:20.667Z,21.75
2022-10-25T18:09:57.524Z,21.75
2022-10-25T18:17:38.165Z,21.76
2022-10-25T18:25:10.972Z,21.76
2022-10-25T18:32:36.084Z,21.73
2022-10-25T18:40:01.583Z,21.72
2022-10-25T18:47:37.013Z,21.7
2022-10-25T18:55:15.110Z,21.7
2022-10-25T19:03:05.822Z,21.73
2022-10-25T19:10:45.530Z,21.8
2022-10-25T19:18:17.564Z,21.94
2022-10-25T19:25:58.951Z,21.86
2022-10-25T19:33:29.358Z,21.89
2022-10-25T19:40:53.137Z,21.89
2022-10-25T19:48:27.014Z,21.87
2022-10-25T19:55:59.511Z,21.89
2022-10-25T20:03:33.007Z,22.02
2022-10-25T20:11:18.608Z,22.07
2022-10-25T20:18:45.556Z,21.91
2022-10-25T20:26:18.926Z,21.88
2022-10-25T20:34:05.751Z,21.79
2022-10-25T20:41:36.785Z,21.8
2022-10-25T20:49:03.174Z,21.82
2022-10-25T20:56:37.524Z,21.83
2022-10-25T21:04:03.001Z,21.82
2022-10-25T21:11:36.142Z,21.78
2022-10-25T21:19:15.606Z,21.73
2022-10-25T21:27:04.875Z,21.74
2022-10-25T21:34:55.300Z,21.78
2022-10-25T21:42:32.723Z,21.83
2022-10-25T21:50:03.036Z,21.75
2022-10-25T21:57:42.461Z,21.74
2022-10-25T22:05:05.465Z,21.72
2022-10-25T22:12:52.355Z,21.71
2022-10-25T22:20:36.749Z,21.69
2022-10-25T22:28:01.647Z,21.67
2022-10-25T22:35:48.031Z,21.7
2022-10-25T22:43:32.445Z,21.73
2022-10-25T22:51:03.202Z,21.71
2022-10-25T22:58:37.083Z,21.71
2022-10-25T23:06:19.252Z,21.68
2022-10-25T23:14:09.814Z,21.66
2022-10-25T23:22:03.057Z,21.71
2022-10-25T23:29:40.797Z,21.7
2022-10-25T23:37:22.432Z,21.67
2022-10-25T23:44:57.705Z,21.71
2022-10-25T23:52:48.718Z,21.66
